createdAt,value
2022-10-01T00:01:15.160Z,4.30
2022-10-01T00:03:45.217Z,6.20
2022-10-01T00:06:12.093Z,7.80
2022-10-01T00:08:41.833Z,10.00
2022-10-01T00:11:14.484Z,5.20
2022-10-01T00:13:43.178Z,3.60
2022-10-01T00:16:17.558Z,3.50
2022-10-01T00:18:46.695Z,7.60
2022-10-01T00:21:16.781Z,10.40
2022-10-01T00:23:44.006Z,7.00
2022-10-01T00:26:20.712Z,4.40
2022-10-01T00:28:53.148Z,3.90
2022-10-01T00:31:20.719Z,4.20
2022-10-01T00:33:48.369Z,4.20
2022-10-01T00:36:15.177Z,3.80
2022-10-01T00:38:42.160Z,4.50
2022-10-01T00:41:09.595Z,4.20
2022-10-01T00:43:42.406Z,8.10
2022-10-01T00:46:20.236Z,5.70
2022-10-01T00:49:10.954Z,7.00
2022-10-01T00:51:43.580Z,4.10
2022-10-01T00:54:24.071Z,4.40
2022-10-01T00:56:55.010Z,3.70
2022-10-01T00:59:21.985Z,2.90
2022-10-01T01:01:49.143Z,4.00
2022-10-01T01:04:16.490Z,2.90
2022-10-01T01:06:56.041Z,7.30
2022-10-01T01:09:32.309Z,4.90
2022-10-01T01:12:14.280Z,5.30
2022-10-01T01:14:57.456Z,9.20
2022-10-01T01:17:37.590Z,8.00
2022-10-01T01:20:37.179Z,5.40
2022-10-01T01:23:16.306Z,5.20
2022-10-01T01:26:04.919Z,6.00
2022-10-01T01:28:37.420Z,6.50
2022-10-01T01:31:13.967Z,3.90
2022-10-01T01:33:45.402Z,5.90
2022-10-01T01:36:19.926Z,8.70
2022-10-01T01:38:56.593Z,4.50
2022-10-01T01:41:28.920Z,6.10
2022-10-01T01:44:00.362Z,4.70
2022-10-01T01:46:33.388Z,9.50
2022-10-01T01:49:03.930Z,8.30
2022-10-01T01:51:41.232Z,10.40
2022-10-01T01:54:09.029Z,6.40
2022-10-01T01:56:36.572Z,5.60
2022-10-01T01:59:03.996Z,6.00
2022-10-01T02:01:41.890Z,7.40
2022-10-01T02:04:15.246Z,7.10
2022-10-01T02:07:17.019Z,7.40
2022-10-01T02:10:18.781Z,5.90
2022-10-01T02:13:07.949Z,7.40
2022-10-01T02:16:03.696Z,4.90
2022-10-01T02:18:36.340Z,7.00
2022-10-01T02:21:22.147Z,5.70
2022-10-01T02:24:05.723Z,7.70
2022-10-01T02:26:37.652Z,5.70
2022-10-01T02:29:10.849Z,7.90
2022-10-01T02:31:39.191Z,7.30
2022-10-01T02:34:12.415Z,6.30
2022-10-01T02:36:41.868Z,8.50
2022-10-01T02:39:10.036Z,8.00
2022-10-01T02:41:37.090Z,9.70
2022-10-01T02:44:14.436Z,8.00
2022-10-01T02:46:58.842Z,8.30
2022-10-01T02:49:30.745Z,9.70
2022-10-01T02:52:03.896Z,13.40
2022-10-01T02:54:36.195Z,15.70
2022-10-01T02:57:21.715Z,11.20
2022-10-01T02:59:52.960Z,9.60
2022-10-01T03:02:22.052Z,11.30
2022-10-01T03:04:49.008Z,8.40
2022-10-01T03:07:16.317Z,7.20
2022-10-01T03:09:43.428Z,7.40
2022-10-01T03:12:10.699Z,6.10
2022-10-01T03:14:38.863Z,8.80
2022-10-01T03:17:07.685Z,6.20
2022-10-01T03:19:34.566Z,8.00
2022-10-01T03:22:01.894Z,5.60
2022-10-01T03:24:29.309Z,5.60
2022-10-01T03:26:56.660Z,8.30
2022-10-01T03:29:24.866Z,9.40
2022-10-01T03:31:52.651Z,8.10
2022-10-01T03:34:20.246Z,5.20
2022-10-01T03:36:47.983Z,5.40
2022-10-01T03:39:15.716Z,6.40
2022-10-01T03:41:42.624Z,5.70
2022-10-01T03:44:10.100Z,4.10
2022-10-01T03:46:36.977Z,8.30
2022-10-01T03:49:03.857Z,7.00
2022-10-01T03:51:31.709Z,8.10
2022-10-01T03:53:59.006Z,7.00
2022-10-01T03:56:28.581Z,6.20
2022-10-01T03:58:55.534Z,6.70
2022-10-01T04:01:22.840Z,6.00
2022-10-01T04:03:49.784Z,8.30
2022-10-01T04:06:16.690Z,6.90
2022-10-01T04:08:44.070Z,9.60
2022-10-01T04:11:11.198Z,7.30
2022-10-01T04:13:38.241Z,7.50
2022-10-01T04:16:06.476Z,7.70
2022-10-01T04:18:34.761Z,8.30
2022-10-01T04:21:04.361Z,9.40
2022-10-01T04:23:31.165Z,9.40
2022-10-01T04:26:00.515Z,6.60
2022-10-01T04:28:28.476Z,6.90
2022-10-01T04:31:14.644Z,9.20
2022-10-01T04:33:41.612Z,8.10
2022-10-01T04:36:08.685Z,7.10
2022-10-01T04:38:35.430Z,10.60
2022-10-01T04:41:02.445Z,5.60
2022-10-01T04:43:29.522Z,7.50
2022-10-01T04:45:56.813Z,6.80
2022-10-01T04:48:23.888Z,9.20
2022-10-01T04:50:50.813Z,10.70
2022-10-01T04:53:17.821Z,7.10
2022-10-01T04:55:45.831Z,10.60
2022-10-01T04:58:12.939Z,9.40
2022-10-01T05:00:39.783Z,10.20
2022-10-01T05:03:06.794Z,8.70
2022-10-01T05:05:34.583Z,8.60
2022-10-01T05:08:01.826Z,11.20
2022-10-01T05:10:29.029Z,8.90
2022-10-01T05:12:57.514Z,10.70
2022-10-01T05:15:24.410Z,12.60
2022-10-01T05:17:51.243Z,9.80
2022-10-01T05:20:22.263Z,8.60
2022-10-01T05:22:49.225Z,5.30
2022-10-01T05:25:17.063Z,7.00
2022-10-01T05:27:44.619Z,5.70
2022-10-01T05:30:23.422Z,6.50
2022-10-01T05:32:59.119Z,9.00
2022-10-01T05:35:27.297Z,6.80
2022-10-01T05:37:59.014Z,7.40
2022-10-01T05:40:28.104Z,5.20
2022-10-01T05:43:00.245Z,6.30
2022-10-01T05:45:30.326Z,6.90
2022-10-01T05:48:03.614Z,5.50
2022-10-01T05:50:34.524Z,6.80
2022-10-01T05:53:02.773Z,5.80
2022-10-01T05:55:34.207Z,6.00
2022-10-01T05:58:05.706Z,7.20
2022-10-01T06:00:35.578Z,7.70
2022-10-01T06:03:05.569Z,5.50
2022-10-01T06:05:37.358Z,7.70
2022-10-01T06:08:09.404Z,6.60
2022-10-01T06:10:37.071Z,5.60
2022-10-01T06:13:06.509Z,6.60
2022-10-01T06:15:37.423Z,7.80
2022-10-01T06:18:06.772Z,8.70
2022-10-01T06:20:35.748Z,6.10
2022-10-01T06:23:09.762Z,7.00
2022-10-01T06:25:38.816Z,7.60
2022-10-01T06:28:08.246Z,6.50
2022-10-01T06:30:38.241Z,5.00
2022-10-01T06:33:07.945Z,6.50
2022-10-01T06:35:41.099Z,5.10
2022-10-01T06:38:09.155Z,7.40
2022-10-01T06:40:37.536Z,5.30
2022-10-01T06:43:08.200Z,6.10
2022-10-01T06:45:40.889Z,4.60
2022-10-01T06:48:14.092Z,4.40
2022-10-01T06:50:44.374Z,15.20
2022-10-01T06:53:14.619Z,5.70
2022-10-01T08:05:17.871Z,5.10
2022-10-01T08:07:47.261Z,4.70
2022-10-01T08:10:17.365Z,4.40
2022-10-01T08:12:46.418Z,10.50
2022-10-01T08:15:17.419Z,4.90
2022-10-01T08:17:45.312Z,5.20
2022-10-01T08:20:15.436Z,5.40
2022-10-01T08:22:47.453Z,5.80
2022-10-01T08:25:15.948Z,4.50
2022-10-01T08:56:46.255Z,3.70
2022-10-01T08:59:31.172Z,7.90
2022-10-01T09:01:59.173Z,5.00
2022-10-01T09:04:28.946Z,6.10
2022-10-01T09:07:23.330Z,6.90
2022-10-01T09:10:20.215Z,6.60
2022-10-01T09:13:09.221Z,5.20
2022-10-01T09:15:47.175Z,8.00
2022-10-01T09:18:27.669Z,4.90
2022-10-01T09:20:58.223Z,6.20
2022-10-01T09:23:30.810Z,6.30
2022-10-01T09:26:00.204Z,10.00
2022-10-01T09:28:34.621Z,6.80
2022-10-01T09:31:21.871Z,5.60
2022-10-01T09:34:08.579Z,4.90
2022-10-01T09:37:04.375Z,10.00
2022-10-01T09:40:01.209Z,7.50
2022-10-01T09:42:31.444Z,7.10
2022-10-01T09:44:59.904Z,6.30
2022-10-01T09:47:28.295Z,6.80
2022-10-01T09:50:00.292Z,5.40
2022-10-01T09:52:38.148Z,5.70
2022-10-01T09:55:18.256Z,7.40
2022-10-01T09:58:10.876Z,5.50
2022-10-01T10:00:40.504Z,5.70
2022-10-01T10:03:08.103Z,3.40
2022-10-01T10:05:47.799Z,4.60
2022-10-01T10:08:20.867Z,8.20
2022-10-01T10:10:58.218Z,6.20
2022-10-01T10:13:37.550Z,8.30
2022-10-01T10:16:26.107Z,4.80
2022-10-01T10:19:10.290Z,5.10
2022-10-01T10:21:37.777Z,8.80
2022-10-01T10:24:31.018Z,6.30
2022-10-01T10:27:01.355Z,2.80
2022-10-01T10:29:31.190Z,5.30
2022-10-01T10:32:26.914Z,5.70
2022-10-01T10:35:02.609Z,5.10
2022-10-01T10:37:38.106Z,4.50
2022-10-01T10:40:07.800Z,6.20
2022-10-01T10:42:38.405Z,7.70
2022-10-01T10:45:17.035Z,4.40
2022-10-01T10:47:48.736Z,5.00
2022-10-01T10:50:29.866Z,2.60
2022-10-01T10:52:57.658Z,3.80
2022-10-01T10:55:30.513Z,3.40
2022-10-01T10:58:11.266Z,4.70
2022-10-01T11:00:52.260Z,5.80
2022-10-01T11:03:27.751Z,5.60
2022-10-01T11:06:09.084Z,8.30
2022-10-01T11:08:38.682Z,3.70
2022-10-01T11:12:10.693Z,5.10
2022-10-01T11:15:06.369Z,5.80
2022-10-01T11:17:54.724Z,6.60
2022-10-01T11:20:29.684Z,3.10
2022-10-01T11:23:29.462Z,3.00
2022-10-01T11:26:34.010Z,5.50
2022-10-01T11:29:03.855Z,7.20
2022-10-01T11:31:37.169Z,7.00
2022-10-01T11:34:10.747Z,11.20
2022-10-01T11:37:00.339Z,10.60
2022-10-01T11:39:32.708Z,6.30
2022-10-01T11:42:27.428Z,6.10
2022-10-01T11:45:06.806Z,4.50
2022-10-01T11:47:47.468Z,2.20
2022-10-01T11:50:21.055Z,5.50
2022-10-01T11:53:05.699Z,6.50
2022-10-01T11:59:00.209Z,3.80
2022-10-01T12:01:31.822Z,4.60
2022-10-01T12:04:12.199Z,2.40
2022-10-01T12:06:54.351Z,5.70
2022-10-01T12:09:36.197Z,5.90
2022-10-01T12:12:10.380Z,4.90
2022-10-01T12:14:43.964Z,4.60
2022-10-01T12:17:38.130Z,4.70
2022-10-01T12:20:32.571Z,4.60
2022-10-01T12:23:04.113Z,4.00
2022-10-01T12:25:48.730Z,8.70
2022-10-01T12:28:26.205Z,3.40
2022-10-01T12:31:19.053Z,5.90
2022-10-01T12:34:04.076Z,8.50
2022-10-01T12:36:55.231Z,7.70
2022-10-01T12:40:03.602Z,11.20
2022-10-01T12:43:05.338Z,5.30
2022-10-01T12:45:49.245Z,5.70
2022-10-01T12:48:39.541Z,8.90
2022-10-01T12:51:36.604Z,5.50
2022-10-01T12:54:26.007Z,5.30
2022-10-01T12:57:01.975Z,5.20
2022-10-01T12:59:40.565Z,5.60
2022-10-01T13:02:33.825Z,4.90
2022-10-01T13:05:26.342Z,4.80
2022-10-01T13:07:56.375Z,13.10
2022-10-01T13:10:26.405Z,7.90
2022-10-01T13:13:16.832Z,6.40
2022-10-01T13:15:49.445Z,3.80
2022-10-01T13:18:35.600Z,5.60
2022-10-01T13:21:14.659Z,10.20
2022-10-01T13:24:38.112Z,5.10
2022-10-01T13:27:30.950Z,5.00
2022-10-01T13:30:24.222Z,9.70
2022-10-01T13:33:05.114Z,5.30
2022-10-01T13:35:39.086Z,6.70
2022-10-01T13:38:40.327Z,6.50
2022-10-01T13:41:25.247Z,5.10
2022-10-01T13:43:58.902Z,5.40
2022-10-01T13:46:35.038Z,6.90
2022-10-01T13:49:16.901Z,7.80
2022-10-01T13:51:45.615Z,5.90
2022-10-01T13:54:24.847Z,8.30
2022-10-01T13:56:52.173Z,7.50
2022-10-01T13:59:35.418Z,8.30
2022-10-01T14:02:23.299Z,7.70
2022-10-01T14:04:51.735Z,5.00
2022-10-01T14:07:27.578Z,8.60
2022-10-01T14:10:00.016Z,6.60
2022-10-01T14:12:53.219Z,9.90
2022-10-01T14:15:48.536Z,3.80
2022-10-01T14:18:21.174Z,6.70
2022-10-01T14:21:08.427Z,9.50
2022-10-01T14:24:09.946Z,5.80
2022-10-01T14:26:58.881Z,28.80
2022-10-01T14:29:50.696Z,19.60
2022-10-01T14:32:36.872Z,9.90
2022-10-01T14:35:38.808Z,7.40
2022-10-01T14:38:15.141Z,9.60
2022-10-01T14:40:46.621Z,9.20
2022-10-01T14:43:28.668Z,9.00
2022-10-01T14:48:28.615Z,7.20
2022-10-01T14:50:58.736Z,11.40
2022-10-01T14:53:28.586Z,26.70
2022-10-01T14:55:59.132Z,13.80
2022-10-01T14:58:38.159Z,10.50
2022-10-01T15:01:06.147Z,18.20
2022-10-01T15:03:41.610Z,22.20
2022-10-01T15:06:17.539Z,13.00
2022-10-01T15:09:06.327Z,10.30
2022-10-01T15:11:34.402Z,14.60
2022-10-01T15:14:05.947Z,14.80
2022-10-01T15:16:35.817Z,14.30
2022-10-01T15:19:08.879Z,14.30
2022-10-01T15:21:48.412Z,10.70
2022-10-01T15:24:20.271Z,8.80
2022-10-01T15:26:49.219Z,7.80
2022-10-01T15:29:18.247Z,7.50
2022-10-01T15:31:48.283Z,9.00
2022-10-01T15:34:20.887Z,7.50
2022-10-01T15:36:49.802Z,12.70
2022-10-01T15:39:33.974Z,6.90
2022-10-01T15:42:08.519Z,7.90
2022-10-01T15:44:38.410Z,7.80
2022-10-01T15:47:21.914Z,8.60
2022-10-01T15:50:16.150Z,8.60
2022-10-01T15:52:49.340Z,8.90
2022-10-01T15:55:58.969Z,10.40
2022-10-01T15:58:34.561Z,11.70
2022-10-01T16:01:11.860Z,13.00
2022-10-01T16:04:11.732Z,21.30
2022-10-01T16:06:45.622Z,8.30
2022-10-01T16:09:23.851Z,8.30
2022-10-01T16:12:03.513Z,10.90
2022-10-01T16:14:55.708Z,8.50
2022-10-01T16:17:32.328Z,6.90
2022-10-01T16:20:22.963Z,5.40
2022-10-01T16:22:50.115Z,9.70
2022-10-01T16:25:32.112Z,8.60
2022-10-01T16:28:05.534Z,9.00
2022-10-01T16:30:33.691Z,8.30
2022-10-01T16:33:04.645Z,6.90
2022-10-01T16:35:35.161Z,8.00
2022-10-01T16:38:07.767Z,9.50
2022-10-01T16:40:39.884Z,14.60
2022-10-01T16:43:08.809Z,12.20
2022-10-01T16:45:42.569Z,10.00
2022-10-01T16:48:15.755Z,9.90
2022-10-01T16:50:45.862Z,10.00
2022-10-01T16:53:15.721Z,7.00
2022-10-01T16:55:43.225Z,6.20
2022-10-01T16:58:10.609Z,6.10
2022-10-01T17:00:38.918Z,6.80
2022-10-01T17:03:09.518Z,6.70
2022-10-01T17:05:37.805Z,5.20
2022-10-01T17:08:13.405Z,8.10
2022-10-01T17:10:57.219Z,7.50
2022-10-01T17:13:32.235Z,3.70
2022-10-01T17:16:01.169Z,5.00
2022-10-01T17:18:28.128Z,7.90
2022-10-01T17:20:55.707Z,6.00
2022-10-01T17:23:24.532Z,7.80
2022-10-01T17:25:52.520Z,5.30
2022-10-01T17:28:21.069Z,8.40
2022-10-01T17:30:48.888Z,9.10
2022-10-01T17:33:22.649Z,8.90
2022-10-01T17:35:55.113Z,11.90
2022-10-01T17:38:22.898Z,7.10
2022-10-01T17:40:56.151Z,16.10
2022-10-01T17:43:24.638Z,7.50
2022-10-01T17:45:57.412Z,5.90
2022-10-01T17:48:26.592Z,4.40
2022-10-01T17:51:02.950Z,4.20
2022-10-01T17:53:35.967Z,3.40
2022-10-01T17:56:08.934Z,6.40
2022-10-01T17:58:38.027Z,8.50
2022-10-01T18:01:31.509Z,8.00
2022-10-01T18:04:03.360Z,9.90
2022-10-01T18:06:33.378Z,9.10
2022-10-01T18:09:01.563Z,4.70
2022-10-01T18:11:29.286Z,5.40
2022-10-01T18:13:57.801Z,3.70
2022-10-01T18:16:25.894Z,5.20
2022-10-01T18:21:46.126Z,4.00
2022-10-01T18:24:14.896Z,4.80
2022-10-01T18:26:45.096Z,4.00
2022-10-01T18:29:23.595Z,4.90
2022-10-01T18:32:16.061Z,5.30
2022-10-01T18:34:58.403Z,8.60
2022-10-01T18:37:41.044Z,5.10
2022-10-01T18:40:16.942Z,6.60
2022-10-01T18:43:12.538Z,6.50
2022-10-01T18:46:02.938Z,8.00
2022-10-01T18:49:04.176Z,5.80
2022-10-01T18:51:57.054Z,9.40
2022-10-01T18:54:26.786Z,5.50
2022-10-01T18:56:59.234Z,4.90
2022-10-01T18:59:41.687Z,5.90
2022-10-01T19:02:39.670Z,4.60
2022-10-01T19:05:42.862Z,5.80
2022-10-01T19:08:39.423Z,5.60
2022-10-01T19:11:29.209Z,3.70
2022-10-01T19:14:08.702Z,4.50
2022-10-01T19:16:53.650Z,6.40
2022-10-01T19:21:53.527Z,8.90
2022-10-01T19:24:51.265Z,10.80
2022-10-01T19:27:44.377Z,11.10
2022-10-01T19:30:15.306Z,9.20
2022-10-01T19:33:02.744Z,9.90
2022-10-01T19:35:38.718Z,9.90
2022-10-01T19:38:29.107Z,13.90
2022-10-01T19:41:12.480Z,18.80
2022-10-01T19:43:54.884Z,18.30
2022-10-01T19:46:37.180Z,21.00
2022-10-01T19:49:20.347Z,10.40
2022-10-01T19:52:02.011Z,12.80
2022-10-01T19:54:32.836Z,15.20
2022-10-01T19:57:13.665Z,10.80
2022-10-01T19:59:41.040Z,15.10
2022-10-01T20:02:26.738Z,20.50
2022-10-01T20:05:04.241Z,14.70
2022-10-01T20:07:46.686Z,14.10
2022-10-01T20:10:16.757Z,16.30
2022-10-01T20:13:09.089Z,18.30
2022-10-01T20:15:54.839Z,16.20
2022-10-01T20:18:31.186Z,25.30
2022-10-01T20:21:39.035Z,13.00
2022-10-01T20:24:08.849Z,15.30
2022-10-01T20:26:44.728Z,17.10
2022-10-01T20:29:48.511Z,15.00
2022-10-01T20:32:23.067Z,13.80
2022-10-01T20:35:02.499Z,16.10
2022-10-01T20:37:48.147Z,12.60
2022-10-01T20:40:45.332Z,10.20
2022-10-01T20:43:17.791Z,11.10
2022-10-01T20:45:51.923Z,9.50
2022-10-01T20:48:27.227Z,9.70
2022-10-01T20:51:46.254Z,5.30
2022-10-01T20:54:22.456Z,4.60
2022-10-01T20:57:04.954Z,3.00
2022-10-01T20:59:50.978Z,3.50
2022-10-01T21:02:38.284Z,2.40
2022-10-01T21:05:15.569Z,3.80
2022-10-01T21:08:21.047Z,2.60
2022-10-01T21:13:30.672Z,7.20
2022-10-01T21:16:11.764Z,7.60
2022-10-01T21:18:47.138Z,4.60
2022-10-01T21:21:27.607Z,4.50
2022-10-01T21:24:15.124Z,4.30
2022-10-01T21:27:09.585Z,3.80
2022-10-01T21:30:02.932Z,6.30
2022-10-01T21:32:53.739Z,6.80
2022-10-01T21:35:32.995Z,7.00
2022-10-01T21:38:16.301Z,6.00
2022-10-01T21:41:07.294Z,3.20
2022-10-01T21:43:36.993Z,1.40
2022-10-01T21:46:37.395Z,2.40
2022-10-01T21:49:16.482Z,1.20
2022-10-01T21:52:09.993Z,3.20
2022-10-01T21:55:08.515Z,1.90
2022-10-01T21:57:44.368Z,8.40
2022-10-01T22:00:18.284Z,6.10
2022-10-01T22:03:10.878Z,3.60
2022-10-01T22:05:53.159Z,4.70
2022-10-01T22:08:26.249Z,3.80
2022-10-01T22:11:02.409Z,5.10
2022-10-01T22:13:34.196Z,4.60
2022-10-01T22:16:06.635Z,4.60
2022-10-01T22:18:43.043Z,6.50
2022-10-01T22:21:22.585Z,5.40
2022-10-01T22:23:58.692Z,5.90
2022-10-01T22:26:31.193Z,6.60
2022-10-01T22:29:01.452Z,9.20
2022-10-01T22:31:34.375Z,6.70
2022-10-01T22:34:12.314Z,7.70
2022-10-01T22:36:49.788Z,5.20
2022-10-01T22:39:35.269Z,5.30
2022-10-01T22:42:14.123Z,5.00
2022-10-01T22:44:43.419Z,8.00
2022-10-01T22:47:10.303Z,6.80
2022-10-01T22:50:10.930Z,4.90
2022-10-01T22:52:50.924Z,4.90
2022-10-01T22:55:24.096Z,4.40
2022-10-01T22:58:17.882Z,4.50
2022-10-01T23:01:09.728Z,5.00
2022-10-01T23:04:12.399Z,5.80
2022-10-01T23:06:57.394Z,7.40
2022-10-01T23:09:38.315Z,5.40
2022-10-01T23:12:14.445Z,5.90
2022-10-01T23:15:04.104Z,7.60
2022-10-01T23:17:42.695Z,7.70
2022-10-01T23:20:29.900Z,4.90
2022-10-01T23:23:02.592Z,3.00
2022-10-01T23:26:06.691Z,3.30
2022-10-01T23:28:44.799Z,2.10
2022-10-01T23:31:44.792Z,2.50
2022-10-01T23:34:20.870Z,4.50
2022-10-01T23:37:26.210Z,4.10
2022-10-01T23:40:07.084Z,2.70
2022-10-01T23:42:59.630Z,4.40
2022-10-01T23:45:47.415Z,3.70
2022-10-01T23:48:22.777Z,3.50
2022-10-01T23:51:07.496Z,3.60
2022-10-01T23:53:54.584Z,5.20
2022-10-01T23:56:48.183Z,3.40
2022-10-01T23:59:28.185Z,4.50
